Time;durP1;ratioP1;P1;durP2;ratioP2;P2;SDS_P1;SDS_P2;PMS_P1;PMS_P2;Temp;Humidity;BMP_temperature;BMP_pressure;BME280_temperature;BME280_humidity;BME280_pressure;Samples;Min_cycle;Max_cycle;Signal;HPM_P1;HPM_P2
2021/06/29 00:00:55;;;;;;;;;16.67;15.67;;;;;33.85;30.51;100938.47;144163;570;131909;-75
2021/06/29 00:03:26;;;;;;;;;15.00;13.67;;;;;33.87;30.30;100933.31;144169;591;132010;-69
2021/06/29 00:05:56;;;;;;;;;18.33;18.33;;;;;33.88;30.40;100932.16;144154;586;132012;-70
2021/06/29 00:08:26;;;;;;;;;25.00;22.33;;;;;33.83;31.43;100926.72;144157;585;131021;-71
2021/06/29 00:10:56;;;;;;;;;17.33;17.00;;;;;33.78;30.73;100926.94;144157;579;132909;-68
2021/06/29 00:13:26;;;;;;;;;19.67;19.67;;;;;33.78;31.13;100917.72;144174;585;132010;-71
2021/06/29 00:15:56;;;;;;;;;24.33;23.00;;;;;33.80;31.17;100921.00;144155;708;131909;-69
2021/06/29 00:18:26;;;;;;;;;19.33;19.33;;;;;33.79;30.46;100928.59;144165;577;132012;-69
2021/06/29 00:20:56;;;;;;;;;18.67;18.33;;;;;33.74;30.76;100929.59;144158;601;132020;-66
2021/06/29 00:23:26;;;;;;;;;17.33;17.33;;;;;33.78;31.23;100931.75;144172;588;131021;-66
2021/06/29 00:25:56;;;;;;;;;20.33;19.00;;;;;33.81;30.66;100931.06;144164;563;132020;-64
2021/06/29 00:28:27;;;;;;;;;16.33;16.33;;;;;33.85;30.60;100932.00;144171;585;131021;-66
2021/06/29 00:30:57;;;;;;;;;19.67;19.67;;;;;33.89;30.66;100938.56;144150;569;132909;-67
2021/06/29 00:33:27;;;;;;;;;17.33;17.00;;;;;33.85;30.50;100937.63;144157;576;131020;-66
2021/06/29 00:35:57;;;;;;;;;18.33;17.67;;;;;33.78;30.49;100935.34;144155;625;131016;-64
2021/06/29 00:38:27;;;;;;;;;17.33;17.33;;;;;33.67;30.01;100940.56;144165;607;132012;-65
2021/06/29 00:40:58;;;;;;;;;19.00;18.33;;;;;33.54;30.62;100944.44;144155;564;131909;-66
2021/06/29 00:43:28;;;;;;;;;23.00;22.33;;;;;33.49;31.42;100942.63;144173;569;131022;-65
2021/06/29 00:45:58;;;;;;;;;18.33;18.00;;;;;33.45;32.28;100936.06;144149;653;133021;-65
2021/06/29 00:48:28;;;;;;;;;21.67;21.67;;;;;33.42;32.26;100937.53;144172;651;131022;-68
2021/06/29 00:51:06;;;;;;;;;21.00;19.67;;;;;33.38;32.07;100925.34;144163;586;132012;-67
2021/06/29 00:53:37;;;;;;;;;20.00;19.33;;;;;33.32;31.88;100929.50;144176;696;132010;-66
2021/06/29 00:56:19;;;;;;;;;24.67;22.67;;;;;33.26;31.89;100928.87;144149;625;132012;-68
2021/06/29 00:58:49;;;;;;;;;21.67;21.00;;;;;33.91;31.30;100922.22;144156;591;132010;-68
2021/06/29 01:01:19;;;;;;;;;21.00;19.67;;;;;33.49;31.66;100923.00;144148;638;132021;-67
2021/06/29 01:03:49;;;;;;;;;20.67;20.00;;;;;33.47;32.05;100932.91;144174;581;131031;-66
2021/06/29 01:06:20;;;;;;;;;17.33;16.33;;;;;33.51;32.00;100931.09;144153;627;131909;-65
2021/06/29 01:08:50;;;;;;;;;21.00;20.67;;;;;33.52;31.43;100927.94;144173;569;132010;-66
2021/06/29 01:11:20;;;;;;;;;19.00;18.67;;;;;33.48;31.42;100938.19;144148;646;132012;-65
2021/06/29 01:13:51;;;;;;;;;17.33;16.33;;;;;33.41;31.04;100935.06;144176;623;131021;-66
2021/06/29 01:16:21;;;;;;;;;21.33;20.67;;;;;33.36;31.70;100940.84;144164;569;131909;-67
2021/06/29 01:18:51;;;;;;;;;23.00;23.00;;;;;33.36;31.51;100944.50;144171;590;132020;-67
2021/06/29 01:21:23;;;;;;;;;22.33;21.33;;;;;33.36;31.73;100938.06;144152;640;131020;-67
2021/06/29 01:23:56;;;;;;;;;25.00;22.67;;;;;33.47;31.36;100944.97;144156;587;131020;-71
2021/06/29 01:26:29;;;;;;;;;17.67;17.33;;;;;33.27;31.84;100946.50;144151;569;132012;-70
2021/06/29 01:29:06;;;;;;;;;17.67;17.67;;;;;33.26;31.91;100944.88;144171;599;132011;-68
2021/06/29 01:31:37;;;;;;;;;20.67;19.00;;;;;33.21;31.44;100942.25;144157;647;131909;-69
2021/06/29 01:34:12;;;;;;;;;17.33;17.33;;;;;33.13;31.73;100935.53;144173;570;132010;-67
2021/06/29 01:36:42;;;;;;;;;22.67;21.00;;;;;33.08;31.79;100942.16;144149;564;132909;-69
2021/06/29 01:39:13;;;;;;;;;20.67;18.00;;;;;33.06;31.63;100936.06;144173;573;131022;-69
2021/06/29 01:41:43;;;;;;;;;24.33;24.00;;;;;33.05;32.15;100928.81;144163;608;131909;-66
2021/06/29 01:44:26;;;;;;;;;22.33;21.67;;;;;33.06;31.74;100927.66;144173;711;131021;-68
2021/06/29 01:46:57;;;;;;;;;22.00;20.67;;;;;33.10;31.96;100930.59;144147;572;132020;-69
2021/06/29 01:49:27;;;;;;;;;19.33;19.33;;;;;33.06;32.60;100919.25;144155;634;131020;-70
2021/06/29 01:51:58;;;;;;;;;14.33;14.33;;;;;33.01;32.29;100919.41;144154;590;131909;-71
2021/06/29 01:54:28;;;;;;;;;19.00;17.67;;;;;33.01;32.11;100914.66;144171;602;131020;-73
2021/06/29 01:56:58;;;;;;;;;20.33;20.33;;;;;33.05;31.58;100920.41;144151;578;133012;-69
2021/06/29 01:59:28;;;;;;;;;18.33;18.33;;;;;33.09;32.40;100915.75;144170;598;132010;-68
2021/06/29 02:01:58;;;;;;;;;21.00;21.00;;;;;33.16;32.09;100912.44;144156;575;131909;-73
2021/06/29 02:04:29;;;;;;;;;17.67;16.67;;;;;33.17;32.75;100923.31;144175;591;131022;-70
2021/06/29 02:06:59;;;;;;;;;20.33;19.67;;;;;33.15;32.85;100922.00;144165;588;131017;-71
2021/06/29 02:09:29;;;;;;;;;21.00;19.00;;;;;33.09;33.13;100929.78;144169;582;131022;-73
2021/06/29 02:11:59;;;;;;;;;22.33;21.33;;;;;33.10;32.84;100925.81;144158;569;132012;-73
2021/06/29 02:14:29;;;;;;;;;23.33;22.67;;;;;33.09;33.67;100929.78;144156;569;131021;-69
2021/06/29 02:16:59;;;;;;;;;24.00;20.33;;;;;33.09;33.62;100932.56;144153;570;131909;-70
2021/06/29 02:19:29;;;;;;;;;24.00;23.33;;;;;33.07;34.35;100925.66;144170;558;131022;-72
2021/06/29 02:21:59;;;;;;;;;19.00;19.00;;;;;32.85;35.38;100925.53;144157;645;131475;-73
2021/06/29 02:24:29;;;;;;;;;23.33;23.33;;;;;32.81;35.39;100932.97;144171;689;131020;-76
2021/06/29 02:27:01;;;;;;;;;26.67;23.00;;;;;32.82;35.35;100929.00;144154;641;132012;-72
2021/06/29 02:29:31;;;;;;;;;22.33;22.00;;;;;33.12;35.48;100931.91;144173;612;131021;-79
2021/06/29 02:32:01;;;;;;;;;26.00;23.00;;;;;33.23;35.34;100934.34;144168;639;131909;-73
2021/06/29 02:34:31;;;;;;;;;24.33;24.00;;;;;33.26;36.24;100937.28;144172;580;131020;-77
2021/06/29 02:37:01;;;;;;;;;31.25;28.25;;;;;33.21;37.78;100939.47;144144;662;132909;-68
2021/06/29 02:39:39;;;;;;;;;26.33;25.00;;;;;33.17;38.23;100944.91;144154;659;131020;-67
2021/06/29 02:42:18;;;;;;;;;25.67;24.00;;;;;33.13;38.69;100946.75;144157;563;131935;-67
2021/06/29 02:44:48;;;;;;;;;28.00;24.67;;;;;33.11;39.33;100951.87;144169;581;132012;-66
2021/06/29 02:47:18;;;;;;;;;28.00;25.33;;;;;33.05;39.60;100956.00;144157;595;131909;-68
2021/06/29 02:49:49;;;;;;;;;28.25;26.75;;;;;32.99;39.86;100958.16;144167;620;132010;-71
2021/06/29 02:52:19;;;;;;;;;28.33;27.67;;;;;32.96;39.42;100951.25;144151;588;132909;-74
2021/06/29 02:54:49;;;;;;;;;26.67;25.33;;;;;32.96;39.77;100958.81;144170;570;132012;-71
2021/06/29 02:57:19;;;;;;;;;27.00;25.33;;;;;32.91;39.77;100956.22;144162;564;131909;-71
2021/06/29 02:59:49;;;;;;;;;26.67;24.33;;;;;32.88;40.03;100969.72;144171;604;132009;-72
2021/06/29 03:02:19;;;;;;;;;27.33;26.00;;;;;32.85;40.58;100969.53;144146;601;132012;-75
2021/06/29 03:04:49;;;;;;;;;25.67;23.33;;;;;32.83;40.46;100971.84;144152;569;132010;-71
2021/06/29 03:07:20;;;;;;;;;26.00;25.00;;;;;32.88;39.81;100966.06;144151;574;132019;-76
2021/06/29 03:09:50;;;;;;;;;22.00;22.00;;;;;32.91;40.54;100973.03;144169;569;132012;-75
2021/06/29 03:12:20;;;;;;;;;24.00;22.67;;;;;32.88;40.34;100975.31;144151;567;132020;-75
2021/06/29 03:14:56;;;;;;;;;28.00;27.00;;;;;32.92;39.89;100975.47;144172;585;132022;-74
2021/06/29 03:17:30;;;;;;;;;28.67;24.67;;;;;32.91;39.96;100973.81;144153;564;132014;-73
2021/06/29 03:20:03;;;;;;;;;25.33;24.33;;;;;32.98;39.43;100976.13;144169;657;132010;-71
2021/06/29 03:22:33;;;;;;;;;19.33;19.00;;;;;33.02;39.79;100979.87;144158;680;132909;-72
2021/06/29 03:25:04;;;;;;;;;23.00;23.00;;;;;33.01;39.60;100978.25;144171;569;131020;-71
2021/06/29 03:27:34;;;;;;;;;24.00;23.67;;;;;33.05;39.92;100979.25;144149;565;132909;-70
2021/06/29 03:30:08;;;;;;;;;26.00;25.67;;;;;33.08;39.55;100984.16;144152;607;132010;-66
2021/06/29 03:32:39;;;;;;;;;24.67;24.33;;;;;33.12;39.24;100990.75;144151;571;132012;-72
2021/06/29 03:35:10;;;;;;;;;20.33;20.00;;;;;33.15;39.75;100984.47;144171;621;132010;-69
2021/06/29 03:37:40;;;;;;;;;25.33;24.00;;;;;33.18;38.90;100982.97;144151;569;132012;-72
2021/06/29 03:40:11;;;;;;;;;21.67;20.00;;;;;33.19;38.93;100984.62;144168;564;131022;-72
2021/06/29 03:42:41;;;;;;;;;23.33;23.33;;;;;33.25;38.99;100988.91;144149;576;132909;-71
2021/06/29 03:45:12;;;;;;;;;22.00;21.00;;;;;33.31;39.00;100993.16;144174;611;131021;-74
2021/06/29 03:47:42;;;;;;;;;24.00;23.00;;;;;33.34;38.27;100991.66;144168;648;132010;-75
2021/06/29 03:50:12;;;;;;;;;23.67;23.33;;;;;33.35;37.85;100984.06;144171;591;132013;-72
2021/06/29 03:52:43;;;;;;;;;25.67;25.67;;;;;33.38;37.84;100987.03;144155;583;132019;-71
2021/06/29 03:55:15;;;;;;;;;21.67;20.00;;;;;33.41;38.10;100989.16;144155;566;131020;-77
2021/06/29 03:57:45;;;;;;;;;24.33;21.67;;;;;33.47;37.44;100992.63;144149;566;132015;-77
2021/06/29 04:00:16;;;;;;;;;22.00;21.33;;;;;33.48;37.15;100991.44;144170;669;132010;-72
2021/06/29 04:02:46;;;;;;;;;17.67;17.00;;;;;33.48;37.07;100980.25;144150;603;131909;-74
2021/06/29 04:05:17;;;;;;;;;18.33;18.00;;;;;33.48;36.39;100982.25;144171;580;131021;-73
2021/06/29 04:07:47;;;;;;;;;23.00;22.00;;;;;33.49;36.76;100981.88;144155;631;132012;-75
2021/06/29 04:10:18;;;;;;;;;22.00;19.67;;;;;33.54;36.54;100989.28;144170;617;132010;-75
2021/06/29 04:12:48;;;;;;;;;23.00;22.00;;;;;33.59;36.63;100977.88;144160;565;132909;-73
2021/06/29 04:15:18;;;;;;;;;22.67;22.33;;;;;33.67;36.33;100982.63;144173;595;131020;-72
2021/06/29 04:17:48;;;;;;;;;27.00;26.00;;;;;33.78;36.80;100987.84;144155;564;131909;-77
2021/06/29 04:20:19;;;;;;;;;23.67;23.00;;;;;33.87;36.54;100988.59;144158;581;131015;-77
2021/06/29 04:22:49;;;;;;;;;25.67;25.67;;;;;33.96;36.27;100986.56;144151;569;132012;-73
2021/06/29 04:25:19;;;;;;;;;25.33;25.33;;;;;34.07;36.47;100984.19;144172;570;132027;-77
2021/06/29 04:27:49;;;;;;;;;17.67;17.00;;;;;34.18;36.64;100984.59;144149;569;132909;-77
2021/06/29 04:30:19;;;;;;;;;17.33;17.33;;;;;34.26;36.16;100982.87;144176;573;131020;-82
2021/06/29 04:32:49;;;;;;;;;20.00;19.33;;;;;34.37;36.24;100994.53;144155;577;132012;-82
2021/06/29 04:35:20;;;;;;;;;21.33;21.00;;;;;34.51;35.73;100986.69;144169;578;132045;-83
2021/06/29 04:37:50;;;;;;;;;25.33;25.00;;;;;34.62;36.40;100998.31;144165;590;132037;-79
2021/06/29 04:40:20;;;;;;;;;20.00;20.00;;;;;34.74;36.28;100991.09;144168;589;132008;-83
2021/06/29 04:42:50;;;;;;;;;25.67;24.33;;;;;34.85;36.40;101003.50;144158;601;131017;-79
2021/06/29 04:45:20;;;;;;;;;22.33;22.33;;;;;34.96;36.58;101001.09;144157;633;131020;-80
2021/06/29 04:47:51;;;;;;;;;26.67;26.67;;;;;35.10;36.85;100998.81;144151;569;131909;-75
2021/06/29 04:50:22;;;;;;;;;23.67;23.00;;;;;35.24;36.62;101000.44;144176;570;132012;-75
2021/06/29 04:52:53;;;;;;;;;23.33;23.00;;;;;35.34;36.90;100990.75;144154;576;131016;-72
2021/06/29 04:55:23;;;;;;;;;25.67;24.67;;;;;35.44;36.86;100997.91;144173;638;131020;-70
2021/06/29 04:57:53;;;;;;;;;25.67;24.67;;;;;35.54;37.30;100998.28;144155;570;132016;-73
2021/06/29 05:00:23;;;;;;;;;23.33;22.00;;;;;35.67;36.73;100993.47;144178;564;131022;-76
2021/06/29 05:02:53;;;;;;;;;24.00;23.67;;;;;35.79;36.90;101006.72;144164;563;131909;-76
2021/06/29 05:05:24;;;;;;;;;23.00;21.67;;;;;35.79;36.52;101003.06;144172;598;131021;-70
2021/06/29 05:07:54;;;;;;;;;23.00;22.33;;;;;35.79;36.78;101008.69;144153;615;132012;-73
2021/06/29 05:10:24;;;;;;;;;24.00;22.67;;;;;35.84;36.71;101005.66;144152;638;131022;-71
2021/06/29 05:12:55;;;;;;;;;19.67;19.67;;;;;35.92;36.43;101004.69;144150;597;132909;-69
2021/06/29 05:15:25;;;;;;;;;19.00;18.33;;;;;36.06;36.26;101007.19;144172;569;131020;-72
2021/06/29 05:17:56;;;;;;;;;22.67;22.67;;;;;36.12;35.70;101007.72;144157;565;131911;-74
2021/06/29 05:20:26;;;;;;;;;22.67;22.67;;;;;36.08;35.18;101007.63;144178;579;132011;-72
2021/06/29 05:22:56;;;;;;;;;24.33;22.00;;;;;36.09;35.05;101008.44;144154;575;131908;-73
2021/06/29 05:25:28;;;;;;;;;20.00;20.00;;;;;36.09;35.00;101019.69;144170;569;131999;-72
2021/06/29 05:27:58;;;;;;;;;27.33;26.00;;;;;36.18;34.88;101016.75;144159;569;132012;-72
2021/06/29 05:30:28;;;;;;;;;24.00;23.00;;;;;36.25;34.74;101014.97;144174;604;131020;-70
2021/06/29 05:32:59;;;;;;;;;27.33;27.33;;;;;36.30;34.39;101022.34;144155;609;131909;-75
2021/06/29 05:35:29;;;;;;;;;21.67;21.00;;;;;36.35;34.29;101018.47;144150;589;132012;-71
2021/06/29 05:38:00;;;;;;;;;24.00;23.33;;;;;36.37;34.29;101018.94;144154;578;132016;-73
2021/06/29 05:40:30;;;;;;;;;26.67;23.67;;;;;36.39;34.22;101019.38;144170;597;132012;-70
2021/06/29 05:43:01;;;;;;;;;23.00;23.00;;;;;36.34;34.43;101020.44;144152;580;132013;-69
2021/06/29 05:45:31;;;;;;;;;24.67;23.67;;;;;36.30;34.85;101018.72;144171;587;132008;-76
2021/06/29 05:48:01;;;;;;;;;18.00;18.00;;;;;36.26;35.35;101027.06;144152;571;131909;-69
2021/06/29 05:50:31;;;;;;;;;22.00;21.67;;;;;36.26;35.21;101027.06;144163;583;132010;-71
2021/06/29 05:53:02;;;;;;;;;22.67;21.67;;;;;36.34;35.10;101020.44;144164;605;131016;-69
2021/06/29 05:55:32;;;;;;;;;20.00;19.00;;;;;36.47;34.30;101026.03;144172;644;132012;-74
2021/06/29 05:58:02;;;;;;;;;14.33;14.00;;;;;36.51;32.75;101015.72;144153;581;131909;-73
2021/06/29 06:00:32;;;;;;;;;18.33;16.67;;;;;36.54;31.99;101013.00;144155;563;131020;-76
2021/06/29 06:03:03;;;;;;;;;19.67;19.67;;;;;36.68;32.13;101020.25;144160;605;131909;-76
2021/06/29 06:05:33;;;;;;;;;19.33;17.67;;;;;36.80;31.85;101020.19;144173;661;131021;-78
2021/06/29 06:08:03;;;;;;;;;10.00;9.00;;;;;36.79;31.85;101015.72;144165;592;132016;-69
2021/06/29 06:10:33;;;;;;;;;12.00;12.00;;;;;36.70;31.79;101015.06;144173;607;132012;-70
2021/06/29 06:13:03;;;;;;;;;13.33;13.33;;;;;36.56;32.29;101018.31;144156;613;132021;-72
2021/06/29 06:15:38;;;;;;;;;16.33;16.33;;;;;36.47;32.54;101026.03;144171;595;132010;-69
2021/06/29 06:18:13;;;;;;;;;16.00;15.00;;;;;36.44;32.89;101013.53;144170;575;131020;-73
2021/06/29 06:20:46;;;;;;;;;18.67;18.00;;;;;36.46;33.42;101019.59;144173;633;131023;-70
2021/06/29 06:23:18;;;;;;;;;6.33;5.33;;;;;36.48;32.71;101028.50;144160;614;132012;-70
2021/06/29 06:25:48;;;;;;;;;16.00;14.00;;;;;36.49;32.71;101018.06;144165;583;131020;-70
2021/06/29 06:28:19;;;;;;;;;13.33;13.33;;;;;36.50;32.68;101020.53;144155;628;132909;-71
2021/06/29 06:30:49;;;;;;;;;13.67;13.67;;;;;36.59;32.58;101016.78;144174;578;132010;-70
2021/06/29 06:33:21;;;;;;;;;17.00;17.00;;;;;36.63;32.27;101018.50;144155;636;131909;-76
2021/06/29 06:35:51;;;;;;;;;16.33;15.67;;;;;36.65;32.28;101023.78;144173;589;132010;-71
2021/06/29 06:38:21;;;;;;;;;16.67;16.67;;;;;36.79;32.46;101020.56;144159;683;132909;-76
2021/06/29 06:40:51;;;;;;;;;12.33;11.33;;;;;36.74;31.66;101016.00;144175;596;131021;-77
2021/06/29 06:43:21;;;;;;;;;17.67;17.00;;;;;36.78;31.82;101016.91;144163;600;132014;-76
2021/06/29 06:45:51;;;;;;;;;19.33;19.00;;;;;36.84;31.62;101009.00;144172;582;131020;-76
2021/06/29 06:48:21;;;;;;;;;16.67;16.67;;;;;36.87;31.78;101013.13;144151;608;132012;-77
2021/06/29 06:50:52;;;;;;;;;17.33;17.33;;;;;37.02;31.87;101012.34;144166;566;132010;-78
2021/06/29 06:53:22;;;;;;;;;18.33;17.67;;;;;37.07;30.89;101020.53;144155;576;131909;-76
2021/06/29 06:55:52;;;;;;;;;15.33;13.00;;;;;37.14;30.42;101014.25;144175;570;131020;-75
2021/06/29 06:58:25;;;;;;;;;12.67;12.67;;;;;37.16;30.57;101022.38;144159;625;131909;-75
2021/06/29 07:00:58;;;;;;;;;15.67;15.67;;;;;37.26;30.49;101021.00;144180;579;131022;-75
2021/06/29 07:03:28;;;;;;;;;17.67;17.67;;;;;37.40;30.68;101015.72;144157;577;131909;-75
2021/06/29 07:05:58;;;;;;;;;13.67;13.00;;;;;37.41;29.45;101022.16;144175;589;132010;-74
2021/06/29 07:08:28;;;;;;;;;15.67;14.67;;;;;37.33;29.86;101022.00;144169;577;131909;-75
2021/06/29 07:10:59;;;;;;;;;14.00;14.00;;;;;37.39;30.63;101020.53;144177;564;131020;-73
2021/06/29 07:13:29;;;;;;;;;14.00;14.00;;;;;37.52;29.45;101017.66;144158;602;131016;-73
2021/06/29 07:16:00;;;;;;;;;12.33;12.33;;;;;37.63;27.93;101018.75;144157;606;131022;-74
2021/06/29 07:18:30;;;;;;;;;17.33;16.00;;;;;37.76;28.18;101013.78;144154;578;132909;-74
2021/06/29 07:21:00;;;;;;;;;17.67;17.00;;;;;37.78;27.06;101008.59;144176;570;132010;-73
2021/06/29 07:23:30;;;;;;;;;14.00;13.00;;;;;37.84;27.79;101009.13;144160;564;131909;-74
2021/06/29 07:26:01;;;;;;;;;14.33;14.00;;;;;37.98;27.19;101010.63;144174;641;131021;-73
2021/06/29 07:28:33;;;;;;;;;14.33;13.67;;;;;38.14;27.18;101004.97;144161;577;131017;-75
2021/06/29 07:31:03;;;;;;;;;15.67;14.67;;;;;38.26;27.89;101006.84;144176;595;131020;-75
2021/06/29 07:33:33;;;;;;;;;15.33;15.33;;;;;38.28;27.35;101004.47;144165;602;131909;-75
2021/06/29 07:36:06;;;;;;;;;14.00;13.33;;;;;38.26;27.61;100998.38;144180;581;131020;-73
2021/06/29 07:38:36;;;;;;;;;18.33;17.33;;;;;38.13;28.60;101004.16;144160;581;132909;-73
2021/06/29 07:41:06;;;;;;;;;18.67;18.00;;;;;37.96;28.43;101005.34;144154;602;132010;-73
2021/06/29 07:43:36;;;;;;;;;12.33;11.67;;;;;37.84;28.65;101000.66;144154;585;133016;-73
2021/06/29 07:46:06;;;;;;;;;16.33;16.33;;;;;37.87;27.51;100999.91;144175;655;132010;-74
2021/06/29 07:48:37;;;;;;;;;12.67;12.67;;;;;37.90;28.57;101004.84;144156;616;132909;-74
2021/06/29 07:51:09;;;;;;;;;16.33;14.00;;;;;37.87;29.02;100999.91;144176;582;131021;-74
2021/06/29 07:53:40;;;;;;;;;14.00;14.00;;;;;37.99;28.44;100998.19;144157;684;131909;-74
2021/06/29 07:56:15;;;;;;;;;13.67;13.00;;;;;37.93;29.60;101006.09;144179;588;131013;-73
2021/06/29 07:58:46;;;;;;;;;16.33;15.33;;;;;37.93;30.57;100997.62;144166;585;131016;-75
2021/06/29 08:01:17;;;;;;;;;14.33;13.00;;;;;37.87;30.05;101002.75;144177;596;132012;-75
2021/06/29 08:03:47;;;;;;;;;17.33;15.67;;;;;37.81;29.53;101001.41;144159;608;131909;-74
2021/06/29 08:06:19;;;;;;;;;12.00;12.00;;;;;37.85;29.18;101002.28;144159;667;131031;-74
2021/06/29 08:08:51;;;;;;;;;15.33;14.67;;;;;37.90;29.87;101004.84;144155;565;131909;-74
2021/06/29 08:11:21;;;;;;;;;17.00;15.00;;;;;37.89;29.38;101008.81;144172;636;132011;-75
2021/06/29 08:13:52;;;;;;;;;16.67;16.00;;;;;37.93;29.94;101021.03;144152;656;132908;-71
2021/06/29 08:16:22;;;;;;;;;8.00;7.33;;;;;37.79;29.79;101006.59;144174;575;132019;-75
2021/06/29 08:18:52;;;;;;;;;18.00;18.00;;;;;37.69;29.99;101010.81;144159;613;132909;-76
2021/06/29 08:21:22;;;;;;;;;17.00;17.00;;;;;37.81;30.40;101002.19;144170;644;131020;-74
2021/06/29 08:23:52;;;;;;;;;19.67;18.33;;;;;38.08;29.60;101008.06;144170;602;132909;-74
2021/06/29 08:26:24;;;;;;;;;17.67;17.67;;;;;38.15;29.45;101003.78;144173;594;131021;-74
2021/06/29 08:28:54;;;;;;;;;17.00;17.00;;;;;38.15;28.61;100996.13;144159;610;131909;-74
2021/06/29 08:31:24;;;;;;;;;15.33;14.33;;;;;38.22;28.70;100998.28;144159;582;131020;-74
2021/06/29 08:33:55;;;;;;;;;14.67;14.67;;;;;38.24;29.04;100995.91;144155;585;132013;-73
2021/06/29 08:36:26;;;;;;;;;16.33;16.00;;;;;38.28;28.36;100995.97;144171;566;132010;-75
2021/06/29 08:38:56;;;;;;;;;17.67;17.00;;;;;38.44;28.65;100996.72;144157;607;132909;-74
2021/06/29 08:41:26;;;;;;;;;17.33;17.00;;;;;38.66;28.11;100985.87;144172;580;132011;-74
2021/06/29 08:43:56;;;;;;;;;19.00;17.67;;;;;38.87;28.03;100995.94;144156;570;131908;-74
2021/06/29 08:46:30;;;;;;;;;13.00;12.67;;;;;39.12;26.80;100987.13;144170;610;132012;-77
2021/06/29 08:49:00;;;;;;;;;19.00;18.33;;;;;39.21;26.29;100990.50;144170;672;132013;-78
2021/06/29 08:51:31;;;;;;;;;17.00;16.00;;;;;39.37;27.01;100986.72;144176;565;131020;-78
2021/06/29 08:54:03;;;;;;;;;16.33;16.33;;;;;39.54;25.90;100980.56;144155;580;131909;-80
2021/06/29 08:56:34;;;;;;;;;17.00;16.33;;;;;39.61;26.49;100985.53;144155;644;131021;-78
2021/06/29 08:59:04;;;;;;;;;17.00;16.33;;;;;39.60;25.75;100979.03;144160;624;132012;-78
2021/06/29 09:01:34;;;;;;;;;20.33;19.67;;;;;39.59;25.88;100979.41;144174;569;132008;-78
2021/06/29 09:04:04;;;;;;;;;18.33;17.67;;;;;39.58;26.21;100975.78;144150;564;132012;-77
2021/06/29 09:06:37;;;;;;;;;16.67;16.33;;;;;39.50;25.85;100971.19;144178;601;132010;-77
2021/06/29 09:09:27;;;;;;;;;19.67;18.33;;;;;39.08;27.54;100980.59;144151;574;132909;-78
2021/06/29 09:11:58;;;;;;;;;17.00;16.33;;;;;39.27;26.43;100965.53;144176;565;131021;-77
2021/06/29 09:14:30;;;;;;;;;19.67;19.00;;;;;39.45;25.68;100977.19;144167;564;131908;-76
2021/06/29 09:17:19;;;;;;;;;17.33;17.33;;;;;39.42;26.55;100964.59;144175;576;131012;-76
2021/06/29 09:19:49;;;;;;;;;20.33;18.67;;;;;39.49;26.21;100967.56;144158;623;132012;-72
2021/06/29 09:22:45;;;;;;;;;13.00;13.00;;;;;39.43;26.54;100968.25;144154;569;132012;-77
2021/06/29 09:25:29;;;;;;;;;18.00;18.00;;;;;39.46;26.63;100961.84;144149;599;132015;-71
2021/06/29 09:27:59;;;;;;;;;15.67;15.67;;;;;39.43;27.06;100957.75;144169;609;132012;-71
2021/06/29 09:31:00;;;;;;;;;17.00;15.67;;;;;39.20;26.13;100963.41;144148;620;132909;-72
2021/06/29 09:33:38;;;;;;;;;15.33;14.00;;;;;39.04;26.52;100958.72;144168;577;132012;-72
2021/06/29 09:36:16;;;;;;;;;17.67;17.67;;;;;39.08;25.79;100958.78;144158;583;131908;-71
2021/06/29 09:38:48;;;;;;;;;15.67;15.67;;;;;39.15;26.06;100952.44;144175;569;132008;-72
2021/06/29 09:41:24;;;;;;;;;18.00;17.67;;;;;39.27;27.19;100942.91;144166;587;131909;-70
2021/06/29 09:43:56;;;;;;;;;19.00;17.67;;;;;39.25;25.72;100951.81;144174;597;131012;-71
2021/06/29 09:46:26;;;;;;;;;3.67;3.00;;;;;39.35;25.92;100939.00;144167;604;132012;-71
2021/06/29 09:49:00;;;;;;;;;16.67;16.00;;;;;39.42;25.07;100947.62;144161;576;132012;-70
2021/06/29 09:51:32;;;;;;;;;11.67;11.00;;;;;39.46;26.82;100947.69;144152;572;132918;-70
2021/06/29 09:54:08;;;;;;;;;16.67;16.00;;;;;39.49;27.25;100938.44;144174;721;132010;-71
2021/06/29 09:56:52;;;;;;;;;14.67;14.67;;;;;39.41;27.51;100948.81;144158;566;132909;-70
2021/06/29 09:59:24;;;;;;;;;13.00;13.00;;;;;39.25;28.35;100940.47;144176;637;131020;-69
2021/06/29 10:02:11;;;;;;;;;19.00;19.00;;;;;39.24;27.54;100938.03;144160;587;132909;-69
2021/06/29 10:04:43;;;;;;;;;15.67;15.67;;;;;39.10;28.84;100938.63;144178;665;132008;-71
2021/06/29 10:07:17;;;;;;;;;15.33;15.00;;;;;39.12;28.51;100947.53;144166;643;131909;-69
2021/06/29 10:10:14;;;;;;;;;20.00;17.67;;;;;39.07;27.11;100943.00;144176;683;132011;-70
2021/06/29 10:12:45;;;;;;;;;17.00;16.67;;;;;39.08;27.10;100929.72;144155;658;132018;-70
2021/06/29 10:15:15;;;;;;;;;20.00;20.00;;;;;39.15;27.20;100926.97;144162;595;131029;-70
2021/06/29 10:17:47;;;;;;;;;17.67;17.67;;;;;39.31;27.01;100921.19;144158;567;132013;-70
2021/06/29 10:20:27;;;;;;;;;20.33;19.00;;;;;39.28;26.48;100928.41;144176;668;131020;-69
2021/06/29 10:22:58;;;;;;;;;18.00;17.33;;;;;39.35;27.73;100922.03;144158;617;132012;-73
2021/06/29 10:25:28;;;;;;;;;16.00;15.67;;;;;39.30;27.76;100920.34;144171;564;132012;-72
2021/06/29 10:27:59;;;;;;;;;22.00;20.00;;;;;39.21;27.36;100923.44;144153;639;133014;-74
2021/06/29 10:30:29;;;;;;;;;18.67;18.00;;;;;39.28;27.26;100919.91;144170;552;132010;-73
2021/06/29 10:33:01;;;;;;;;;20.00;19.00;;;;;39.26;26.84;100908.19;144166;588;131909;-74
2021/06/29 10:35:31;;;;;;;;;20.00;19.33;;;;;39.29;25.97;100913.06;144171;624;131020;-74
2021/06/29 10:38:12;;;;;;;;;15.67;15.67;;;;;39.18;25.98;100918.56;144152;613;131909;-72
2021/06/29 10:40:42;;;;;;;;;13.00;12.67;;;;;39.18;26.88;100917.72;144156;583;132011;-73
2021/06/29 10:43:13;;;;;;;;;16.67;16.00;;;;;39.97;26.43;100906.75;144153;569;131891;-73
2021/06/29 10:45:44;;;;;;;;;17.33;16.67;;;;;40.08;25.85;100906.09;144174;636;132010;-74
2021/06/29 10:48:22;;;;;;;;;22.00;21.33;;;;;39.79;24.70;100909.31;144152;577;132014;-73
2021/06/29 10:51:03;;;;;;;;;18.00;17.33;;;;;40.13;25.19;100903.72;144175;595;131022;-76
2021/06/29 10:53:49;;;;;;;;;16.33;15.67;;;;;40.07;25.80;100896.75;144161;599;132012;-74
2021/06/29 10:56:20;;;;;;;;;17.33;15.33;;;;;39.68;26.21;100897.06;144168;570;131023;-74
2021/06/29 10:58:54;;;;;;;;;18.67;18.67;;;;;39.72;25.47;100892.28;144168;569;132012;-73
2021/06/29 11:01:34;;;;;;;;;16.00;15.67;;;;;39.77;24.52;100875.75;144176;563;132010;-78
2021/06/29 11:04:05;;;;;;;;;16.00;16.00;;;;;39.77;24.94;100892.75;144160;570;131470;-86
2021/06/29 11:06:44;;;;;;;;;19.33;18.67;;;;;39.90;25.02;100881.22;144156;617;131020;-72
2021/06/29 11:09:24;;;;;;;;;22.67;20.67;;;;;40.05;25.83;100879.34;144156;663;131907;-75
2021/06/29 11:12:25;;;;;;;;;17.33;17.00;;;;;40.26;24.69;100875.94;144179;564;131012;-74
2021/06/29 11:14:59;;;;;;;;;19.00;19.00;;;;;40.33;24.27;100873.22;144160;571;131907;-75
2021/06/29 11:17:53;;;;;;;;;17.67;17.00;;;;;40.43;25.76;100868.03;144169;570;131022;-75
2021/06/29 11:20:25;;;;;;;;;22.67;21.00;;;;;40.43;25.19;100866.03;144156;584;132012;-76
2021/06/29 11:23:05;;;;;;;;;22.67;22.00;;;;;40.85;25.25;100869.66;144178;563;132008;-76